sensor_id;sensor_type;location;lat;lon;timestamp;temperature;humidity
64888;DHT22;51386;53.082;8.816;2024-03-07T00:01:41;6.50;86.80
64888;DHT22;51386;53.082;8.816;2024-03-07T00:04:10;6.50;86.60
64888;DHT22;51386;53.082;8.816;2024-03-07T00:06:38;6.60;86.30
64888;DHT22;51386;53.082;8.816;2024-03-07T00:09:08;6.60;86.00
64888;DHT22;51386;53.082;8.816;2024-03-07T00:11:37;6.60;86.20
64888;DHT22;51386;53.082;8.816;2024-03-07T00:14:06;6.60;86.20
64888;DHT22;51386;53.082;8.816;2024-03-07T00:16:35;6.70;86.10
64888;DHT22;51386;53.082;8.816;2024-03-07T00:19:03;6.70;85.90
64888;DHT22;51386;53.082;8.816;2024-03-07T00:21:31;6.70;85.80
64888;DHT22;51386;53.082;8.816;2024-03-07T00:24:00;6.80;85.70
64888;DHT22;51386;53.082;8.816;2024-03-07T00:26:28;6.80;85.20
64888;DHT22;51386;53.082;8.816;2024-03-07T00:28:58;6.80;85.10
64888;DHT22;51386;53.082;8.816;2024-03-07T00:31:27;6.80;85.20
64888;DHT22;51386;53.082;8.816;2024-03-07T00:33:57;6.80;84.90
64888;DHT22;51386;53.082;8.816;2024-03-07T00:36:39;6.80;84.30
64888;DHT22;51386;53.082;8.816;2024-03-07T00:39:08;6.70;84.20
64888;DHT22;51386;53.082;8.816;2024-03-07T00:41:40;6.60;83.60
64888;DHT22;51386;53.082;8.816;2024-03-07T00:44:09;6.50;83.60
64888;DHT22;51386;53.082;8.816;2024-03-07T00:46:38;6.40;83.80
64888;DHT22;51386;53.082;8.816;2024-03-07T00:49:06;6.30;84.30
64888;DHT22;51386;53.082;8.816;2024-03-07T00:51:35;6.20;84.30
64888;DHT22;51386;53.082;8.816;2024-03-07T00:54:06;6.00;84.50
64888;DHT22;51386;53.082;8.816;2024-03-07T00:56:34;5.90;84.70
64888;DHT22;51386;53.082;8.816;2024-03-07T00:59:04;5.80;85.20
64888;DHT22;51386;53.082;8.816;2024-03-07T01:01:33;5.70;85.40
64888;DHT22;51386;53.082;8.816;2024-03-07T01:04:04;5.60;85.40
64888;DHT22;51386;53.082;8.816;2024-03-07T01:06:32;5.50;86.00
64888;DHT22;51386;53.082;8.816;2024-03-07T01:09:01;5.40;86.20
64888;DHT22;51386;53.082;8.816;2024-03-07T01:11:30;5.30;86.90
64888;DHT22;51386;53.082;8.816;2024-03-07T01:13:59;5.20;87.10
64888;DHT22;51386;53.082;8.816;2024-03-07T01:16:27;5.10;87.30
64888;DHT22;51386;53.082;8.816;2024-03-07T01:18:56;5.10;87.50
64888;DHT22;51386;53.082;8.816;2024-03-07T01:21:24;5.00;87.70
64888;DHT22;51386;53.082;8.816;2024-03-07T01:23:53;4.90;87.90
64888;DHT22;51386;53.082;8.816;2024-03-07T01:26:22;4.90;88.80
64888;DHT22;51386;53.082;8.816;2024-03-07T01:28:51;4.80;89.00
64888;DHT22;51386;53.082;8.816;2024-03-07T01:31:20;4.90;89.60
64888;DHT22;51386;53.082;8.816;2024-03-07T01:33:50;4.80;89.30
64888;DHT22;51386;53.082;8.816;2024-03-07T01:36:19;4.80;89.40
64888;DHT22;51386;53.082;8.816;2024-03-07T01:38:48;4.80;89.60
64888;DHT22;51386;53.082;8.816;2024-03-07T01:41:17;4.80;89.70
64888;DHT22;51386;53.082;8.816;2024-03-07T01:43:45;4.70;89.70
64888;DHT22;51386;53.082;8.816;2024-03-07T01:46:14;4.70;89.70
64888;DHT22;51386;53.082;8.816;2024-03-07T01:48:43;4.60;90.00
64888;DHT22;51386;53.082;8.816;2024-03-07T01:51:11;4.60;90.10
64888;DHT22;51386;53.082;8.816;2024-03-07T01:53:40;4.60;90.70
64888;DHT22;51386;53.082;8.816;2024-03-07T01:56:09;4.70;90.70
64888;DHT22;51386;53.082;8.816;2024-03-07T01:58:37;4.70;90.90
64888;DHT22;51386;53.082;8.816;2024-03-07T02:01:06;4.70;90.70
64888;DHT22;51386;53.082;8.816;2024-03-07T02:03:36;4.80;90.70
64888;DHT22;51386;53.082;8.816;2024-03-07T02:06:04;4.80;90.60
64888;DHT22;51386;53.082;8.816;2024-03-07T02:08:32;4.80;90.60
64888;DHT22;51386;53.082;8.816;2024-03-07T02:11:02;4.90;90.30
64888;DHT22;51386;53.082;8.816;2024-03-07T02:13:31;4.80;90.10
64888;DHT22;51386;53.082;8.816;2024-03-07T02:16:03;4.80;90.40
64888;DHT22;51386;53.082;8.816;2024-03-07T02:18:32;4.80;90.60
64888;DHT22;51386;53.082;8.816;2024-03-07T02:21:06;4.80;90.60
64888;DHT22;51386;53.082;8.816;2024-03-07T02:23:37;4.90;90.60
64888;DHT22;51386;53.082;8.816;2024-03-07T02:26:05;4.90;90.80
64888;DHT22;51386;53.082;8.816;2024-03-07T02:28:35;4.90;90.90
64888;DHT22;51386;53.082;8.816;2024-03-07T02:31:03;5.00;91.10
64888;DHT22;51386;53.082;8.816;2024-03-07T02:33:31;5.00;90.90
64888;DHT22;51386;53.082;8.816;2024-03-07T02:36:00;5.10;90.90
64888;DHT22;51386;53.082;8.816;2024-03-07T02:38:28;5.10;90.70
64888;DHT22;51386;53.082;8.816;2024-03-07T02:40:56;5.10;91.10
64888;DHT22;51386;53.082;8.816;2024-03-07T02:43:26;5.10;91.30
64888;DHT22;51386;53.082;8.816;2024-03-07T02:45:55;5.10;91.40
64888;DHT22;51386;53.082;8.816;2024-03-07T02:48:24;5.10;91.40
64888;DHT22;51386;53.082;8.816;2024-03-07T02:50:52;5.10;91.50
64888;DHT22;51386;53.082;8.816;2024-03-07T02:53:21;5.10;91.70
64888;DHT22;51386;53.082;8.816;2024-03-07T02:55:49;5.10;92.00
64888;DHT22;51386;53.082;8.816;2024-03-07T02:58:18;5.10;92.10
64888;DHT22;51386;53.082;8.816;2024-03-07T03:00:47;5.00;92.30
64888;DHT22;51386;53.082;8.816;2024-03-07T03:03:16;5.10;92.60
64888;DHT22;51386;53.082;8.816;2024-03-07T03:05:45;5.10;92.60
64888;DHT22;51386;53.082;8.816;2024-03-07T03:08:13;5.10;92.60
64888;DHT22;51386;53.082;8.816;2024-03-07T03:10:42;5.10;92.50
64888;DHT22;51386;53.082;8.816;2024-03-07T03:13:10;5.20;92.60
64888;DHT22;51386;53.082;8.816;2024-03-07T03:15:39;5.20;92.50
64888;DHT22;51386;53.082;8.816;2024-03-07T03:18:07;5.20;92.80
64888;DHT22;51386;53.082;8.816;2024-03-07T03:20:36;5.30;93.20
64888;DHT22;51386;53.082;8.816;2024-03-07T03:23:07;5.30;92.60
64888;DHT22;51386;53.082;8.816;2024-03-07T03:25:47;5.40;92.60
64888;DHT22;51386;53.082;8.816;2024-03-07T03:28:16;5.40;92.70
64888;DHT22;51386;53.082;8.816;2024-03-07T03:30:48;5.50;92.70
64888;DHT22;51386;53.082;8.816;2024-03-07T03:33:19;5.50;92.60
64888;DHT22;51386;53.082;8.816;2024-03-07T03:35:48;5.50;92.70
64888;DHT22;51386;53.082;8.816;2024-03-07T03:38:17;5.50;92.70
64888;DHT22;51386;53.082;8.816;2024-03-07T03:40:47;5.50;92.70
64888;DHT22;51386;53.082;8.816;2024-03-07T03:43:16;5.50;92.70
64888;DHT22;51386;53.082;8.816;2024-03-07T03:45:44;5.60;92.80
64888;DHT22;51386;53.082;8.816;2024-03-07T03:48:15;5.60;92.70
64888;DHT22;51386;53.082;8.816;2024-03-07T03:50:44;5.60;92.60
64888;DHT22;51386;53.082;8.816;2024-03-07T03:53:14;5.50;92.70
64888;DHT22;51386;53.082;8.816;2024-03-07T03:55:42;5.50;93.00
64888;DHT22;51386;53.082;8.816;2024-03-07T03:58:11;5.50;92.90
64888;DHT22;51386;53.082;8.816;2024-03-07T04:00:39;5.50;93.30
64888;DHT22;51386;53.082;8.816;2024-03-07T04:03:08;5.60;93.40
64888;DHT22;51386;53.082;8.816;2024-03-07T04:05:36;5.60;93.30
64888;DHT22;51386;53.082;8.816;2024-03-07T04:08:04;5.70;93.50
64888;DHT22;51386;53.082;8.816;2024-03-07T04:10:33;5.70;93.30
64888;DHT22;51386;53.082;8.816;2024-03-07T04:13:01;5.70;93.00
64888;DHT22;51386;53.082;8.816;2024-03-07T04:15:31;5.70;93.20
64888;DHT22;51386;53.082;8.816;2024-03-07T04:18:03;5.60;93.20
64888;DHT22;51386;53.082;8.816;2024-03-07T04:20:32;5.60;93.30
64888;DHT22;51386;53.082;8.816;2024-03-07T04:23:01;5.60;93.30
64888;DHT22;51386;53.082;8.816;2024-03-07T04:25:30;5.50;93.40
64888;DHT22;51386;53.082;8.816;2024-03-07T04:27:59;5.50;93.30
64888;DHT22;51386;53.082;8.816;2024-03-07T04:30:27;5.50;93.40
64888;DHT22;51386;53.082;8.816;2024-03-07T04:32:56;5.40;93.40
64888;DHT22;51386;53.082;8.816;2024-03-07T04:35:26;5.40;93.70
64888;DHT22;51386;53.082;8.816;2024-03-07T04:37:54;5.40;94.00
64888;DHT22;51386;53.082;8.816;2024-03-07T04:40:23;5.30;94.10
64888;DHT22;51386;53.082;8.816;2024-03-07T04:42:51;5.30;94.10
64888;DHT22;51386;53.082;8.816;2024-03-07T04:45:20;5.30;94.20
64888;DHT22;51386;53.082;8.816;2024-03-07T04:47:49;5.30;94.40
64888;DHT22;51386;53.082;8.816;2024-03-07T04:50:18;5.40;94.60
64888;DHT22;51386;53.082;8.816;2024-03-07T04:52:47;5.40;94.80
64888;DHT22;51386;53.082;8.816;2024-03-07T04:55:16;5.40;94.70
64888;DHT22;51386;53.082;8.816;2024-03-07T04:57:45;5.50;94.50
64888;DHT22;51386;53.082;8.816;2024-03-07T05:00:15;5.50;94.40
64888;DHT22;51386;53.082;8.816;2024-03-07T05:02:46;5.50;94.50
64888;DHT22;51386;53.082;8.816;2024-03-07T05:05:16;5.50;94.60
64888;DHT22;51386;53.082;8.816;2024-03-07T05:07:53;5.60;94.50
64888;DHT22;51386;53.082;8.816;2024-03-07T05:10:23;5.60;94.20
64888;DHT22;51386;53.082;8.816;2024-03-07T05:12:52;5.50;94.20
64888;DHT22;51386;53.082;8.816;2024-03-07T05:15:21;5.50;94.50
64888;DHT22;51386;53.082;8.816;2024-03-07T05:17:53;5.60;94.70
64888;DHT22;51386;53.082;8.816;2024-03-07T05:20:24;5.60;94.50
64888;DHT22;51386;53.082;8.816;2024-03-07T05:22:52;5.60;94.30
64888;DHT22;51386;53.082;8.816;2024-03-07T05:25:20;5.60;94.20
64888;DHT22;51386;53.082;8.816;2024-03-07T05:27:52;5.60;94.50
64888;DHT22;51386;53.082;8.816;2024-03-07T05:30:21;5.70;94.60
64888;DHT22;51386;53.082;8.816;2024-03-07T05:32:51;5.70;94.70
64888;DHT22;51386;53.082;8.816;2024-03-07T05:35:19;5.80;94.70
64888;DHT22;51386;53.082;8.816;2024-03-07T05:37:48;5.80;94.60
64888;DHT22;51386;53.082;8.816;2024-03-07T05:40:19;5.80;94.60
64888;DHT22;51386;53.082;8.816;2024-03-07T05:42:47;5.90;94.60
64888;DHT22;51386;53.082;8.816;2024-03-07T05:45:16;6.00;94.50
64888;DHT22;51386;53.082;8.816;2024-03-07T05:47:46;6.10;94.30
64888;DHT22;51386;53.082;8.816;2024-03-07T05:50:15;6.10;94.00
64888;DHT22;51386;53.082;8.816;2024-03-07T05:52:44;6.10;93.80
64888;DHT22;51386;53.082;8.816;2024-03-07T05:55:13;6.20;93.80
64888;DHT22;51386;53.082;8.816;2024-03-07T05:57:43;6.20;93.90
64888;DHT22;51386;53.082;8.816;2024-03-07T06:00:13;6.20;94.00
64888;DHT22;51386;53.082;8.816;2024-03-07T06:02:43;6.30;94.10
64888;DHT22;51386;53.082;8.816;2024-03-07T06:05:11;6.30;94.10
64888;DHT22;51386;53.082;8.816;2024-03-07T06:07:43;6.40;94.20
64888;DHT22;51386;53.082;8.816;2024-03-07T06:10:13;6.50;94.20
64888;DHT22;51386;53.082;8.816;2024-03-07T06:12:44;6.50;94.10
64888;DHT22;51386;53.082;8.816;2024-03-07T06:15:16;6.60;94.00
64888;DHT22;51386;53.082;8.816;2024-03-07T06:17:45;6.70;94.00
64888;DHT22;51386;53.082;8.816;2024-03-07T06:20:14;6.80;93.80
64888;DHT22;51386;53.082;8.816;2024-03-07T06:22:51;6.90;93.50
64888;DHT22;51386;53.082;8.816;2024-03-07T06:25:20;7.00;93.40
64888;DHT22;51386;53.082;8.816;2024-03-07T06:28:02;7.00;93.20
64888;DHT22;51386;53.082;8.816;2024-03-07T06:30:42;7.10;93.30
64888;DHT22;51386;53.082;8.816;2024-03-07T06:33:13;7.20;93.10
64888;DHT22;51386;53.082;8.816;2024-03-07T06:35:42;7.20;93.00
64888;DHT22;51386;53.082;8.816;2024-03-07T06:38:11;7.30;93.00
64888;DHT22;51386;53.082;8.816;2024-03-07T06:40:41;7.30;92.80
64888;DHT22;51386;53.082;8.816;2024-03-07T06:43:12;7.40;92.70
64888;DHT22;51386;53.082;8.816;2024-03-07T06:45:41;7.40;92.70
64888;DHT22;51386;53.082;8.816;2024-03-07T06:48:10;7.40;92.60
64888;DHT22;51386;53.082;8.816;2024-03-07T06:50:38;7.40;92.50
64888;DHT22;51386;53.082;8.816;2024-03-07T06:53:07;7.50;92.60
64888;DHT22;51386;53.082;8.816;2024-03-07T06:55:35;7.50;92.60
64888;DHT22;51386;53.082;8.816;2024-03-07T06:58:04;7.50;92.40
64888;DHT22;51386;53.082;8.816;2024-03-07T07:00:33;7.50;92.40
64888;DHT22;51386;53.082;8.816;2024-03-07T07:03:05;7.60;92.30
64888;DHT22;51386;53.082;8.816;2024-03-07T07:05:34;7.60;92.20
64888;DHT22;51386;53.082;8.816;2024-03-07T07:08:03;7.50;92.20
64888;DHT22;51386;53.082;8.816;2024-03-07T07:10:32;7.50;92.20
64888;DHT22;51386;53.082;8.816;2024-03-07T07:13:01;7.50;92.20
64888;DHT22;51386;53.082;8.816;2024-03-07T07:15:29;7.50;92.20
64888;DHT22;51386;53.082;8.816;2024-03-07T07:17:58;7.50;92.30
64888;DHT22;51386;53.082;8.816;2024-03-07T07:20:27;7.50;92.20
64888;DHT22;51386;53.082;8.816;2024-03-07T07:22:55;7.50;92.40
64888;DHT22;51386;53.082;8.816;2024-03-07T07:25:25;7.50;92.40
64888;DHT22;51386;53.082;8.816;2024-03-07T07:27:55;7.50;92.50
64888;DHT22;51386;53.082;8.816;2024-03-07T07:30:24;7.40;92.40
64888;DHT22;51386;53.082;8.816;2024-03-07T07:32:54;7.40;92.60
64888;DHT22;51386;53.082;8.816;2024-03-07T07:35:23;7.40;92.90
64888;DHT22;51386;53.082;8.816;2024-03-07T07:37:52;7.40;92.90
64888;DHT22;51386;53.082;8.816;2024-03-07T07:40:23;7.50;93.00
64888;DHT22;51386;53.082;8.816;2024-03-07T07:42:55;7.50;93.00
64888;DHT22;51386;53.082;8.816;2024-03-07T07:45:24;7.50;93.10
64888;DHT22;51386;53.082;8.816;2024-03-07T07:47:53;7.60;93.20
64888;DHT22;51386;53.082;8.816;2024-03-07T07:50:23;7.60;93.10
64888;DHT22;51386;53.082;8.816;2024-03-07T07:52:54;7.60;93.00
64888;DHT22;51386;53.082;8.816;2024-03-07T07:55:28;7.60;93.00
64888;DHT22;51386;53.082;8.816;2024-03-07T07:57:58;7.60;93.00
64888;DHT22;51386;53.082;8.816;2024-03-07T08:00:28;7.60;93.00
64888;DHT22;51386;53.082;8.816;2024-03-07T08:03:02;7.60;93.20
64888;DHT22;51386;53.082;8.816;2024-03-07T08:05:33;7.70;93.20
64888;DHT22;51386;53.082;8.816;2024-03-07T08:08:06;7.70;93.20
64888;DHT22;51386;53.082;8.816;2024-03-07T08:10:36;7.70;93.10
64888;DHT22;51386;53.082;8.816;2024-03-07T08:13:10;7.80;93.10
64888;DHT22;51386;53.082;8.816;2024-03-07T08:15:38;7.80;93.20
64888;DHT22;51386;53.082;8.816;2024-03-07T08:18:07;7.90;93.20
64888;DHT22;51386;53.082;8.816;2024-03-07T08:20:39;7.90;93.10
64888;DHT22;51386;53.082;8.816;2024-03-07T08:23:09;8.00;93.10
64888;DHT22;51386;53.082;8.816;2024-03-07T08:25:37;8.10;93.20
64888;DHT22;51386;53.082;8.816;2024-03-07T08:28:09;8.10;93.10
64888;DHT22;51386;53.082;8.816;2024-03-07T08:30:37;8.20;93.10
64888;DHT22;51386;53.082;8.816;2024-03-07T08:33:06;8.30;93.00
64888;DHT22;51386;53.082;8.816;2024-03-07T08:35:35;8.50;93.00
64888;DHT22;51386;53.082;8.816;2024-03-07T08:38:04;8.70;92.90
64888;DHT22;51386;53.082;8.816;2024-03-07T08:40:32;8.90;92.70
64888;DHT22;51386;53.082;8.816;2024-03-07T08:43:02;9.20;92.10
64888;DHT22;51386;53.082;8.816;2024-03-07T08:45:31;9.40;92.00
64888;DHT22;51386;53.082;8.816;2024-03-07T08:48:03;9.70;91.60
64888;DHT22;51386;53.082;8.816;2024-03-07T08:50:33;10.00;90.30
64888;DHT22;51386;53.082;8.816;2024-03-07T08:53:06;10.20;89.70
64888;DHT22;51386;53.082;8.816;2024-03-07T08:55:34;10.40;89.00
64888;DHT22;51386;53.082;8.816;2024-03-07T08:58:04;10.60;86.20
64888;DHT22;51386;53.082;8.816;2024-03-07T09:00:34;10.70;85.40
64888;DHT22;51386;53.082;8.816;2024-03-07T09:03:06;10.70;84.60
64888;DHT22;51386;53.082;8.816;2024-03-07T09:05:39;10.70;84.80
64888;DHT22;51386;53.082;8.816;2024-03-07T09:08:08;10.70;84.80
64888;DHT22;51386;53.082;8.816;2024-03-07T09:10:36;10.60;84.70
64888;DHT22;51386;53.082;8.816;2024-03-07T09:13:10;10.60;84.50
64888;DHT22;51386;53.082;8.816;2024-03-07T09:15:38;10.50;84.50
64888;DHT22;51386;53.082;8.816;2024-03-07T09:18:07;10.40;85.00
64888;DHT22;51386;53.082;8.816;2024-03-07T09:20:36;10.40;85.00
64888;DHT22;51386;53.082;8.816;2024-03-07T09:23:06;10.30;83.90
64888;DHT22;51386;53.082;8.816;2024-03-07T09:25:34;10.20;84.00
64888;DHT22;51386;53.082;8.816;2024-03-07T09:28:03;10.00;83.50
64888;DHT22;51386;53.082;8.816;2024-03-07T09:30:32;9.90;85.30
64888;DHT22;51386;53.082;8.816;2024-03-07T09:33:00;9.80;85.60
64888;DHT22;51386;53.082;8.816;2024-03-07T09:35:30;9.70;85.70
64888;DHT22;51386;53.082;8.816;2024-03-07T09:37:58;9.60;86.50
64888;DHT22;51386;53.082;8.816;2024-03-07T09:40:27;9.50;86.40
64888;DHT22;51386;53.082;8.816;2024-03-07T09:43:00;9.40;86.50
64888;DHT22;51386;53.082;8.816;2024-03-07T09:45:29;9.30;86.70
64888;DHT22;51386;53.082;8.816;2024-03-07T09:47:59;9.20;86.80
64888;DHT22;51386;53.082;8.816;2024-03-07T09:50:29;9.20;87.00
64888;DHT22;51386;53.082;8.816;2024-03-07T09:52:59;9.10;87.10
64888;DHT22;51386;53.082;8.816;2024-03-07T09:55:30;9.00;87.70
64888;DHT22;51386;53.082;8.816;2024-03-07T09:58:00;8.90;89.00
64888;DHT22;51386;53.082;8.816;2024-03-07T10:00:31;8.90;88.30
64888;DHT22;51386;53.082;8.816;2024-03-07T10:03:05;8.90;88.60
64888;DHT22;51386;53.082;8.816;2024-03-07T10:05:37;8.80;88.30
64888;DHT22;51386;53.082;8.816;2024-03-07T10:08:06;8.80;88.40
64888;DHT22;51386;53.082;8.816;2024-03-07T10:10:35;8.80;88.80
64888;DHT22;51386;53.082;8.816;2024-03-07T10:13:04;8.80;88.30
64888;DHT22;51386;53.082;8.816;2024-03-07T10:15:33;8.80;88.40
64888;DHT22;51386;53.082;8.816;2024-03-07T10:18:02;8.80;88.40
64888;DHT22;51386;53.082;8.816;2024-03-07T10:20:34;8.80;88.50
64888;DHT22;51386;53.082;8.816;2024-03-07T10:23:04;8.80;88.90
64888;DHT22;51386;53.082;8.816;2024-03-07T10:25:35;8.80;88.60
64888;DHT22;51386;53.082;8.816;2024-03-07T10:28:06;8.80;87.70
64888;DHT22;51386;53.082;8.816;2024-03-07T10:30:42;8.80;87.10
64888;DHT22;51386;53.082;8.816;2024-03-07T10:33:18;8.70;86.80
64888;DHT22;51386;53.082;8.816;2024-03-07T10:35:47;8.70;87.10
64888;DHT22;51386;53.082;8.816;2024-03-07T10:38:18;8.60;87.70
64888;DHT22;51386;53.082;8.816;2024-03-07T10:40:47;8.60;87.80
64888;DHT22;51386;53.082;8.816;2024-03-07T10:43:22;8.60;88.00
64888;DHT22;51386;53.082;8.816;2024-03-07T10:45:51;8.60;87.90
64888;DHT22;51386;53.082;8.816;2024-03-07T10:48:20;8.60;87.90
64888;DHT22;51386;53.082;8.816;2024-03-07T10:51:02;8.60;87.60
64888;DHT22;51386;53.082;8.816;2024-03-07T10:54:07;8.60;87.50
64888;DHT22;51386;53.082;8.816;2024-03-07T10:57:11;8.70;87.60
64888;DHT22;51386;53.082;8.816;2024-03-07T10:59:51;8.70;87.80
64888;DHT22;51386;53.082;8.816;2024-03-07T11:02:35;8.80;87.10
64888;DHT22;51386;53.082;8.816;2024-03-07T11:05:13;8.90;86.60
64888;DHT22;51386;53.082;8.816;2024-03-07T11:07:43;8.90;85.50
64888;DHT22;51386;53.082;8.816;2024-03-07T11:10:12;8.90;85.50
64888;DHT22;51386;53.082;8.816;2024-03-07T11:12:41;8.90;85.40
64888;DHT22;51386;53.082;8.816;2024-03-07T11:15:12;8.90;84.90
64888;DHT22;51386;53.082;8.816;2024-03-07T11:17:48;8.90;85.30
64888;DHT22;51386;53.082;8.816;2024-03-07T11:20:33;8.90;85.10
64888;DHT22;51386;53.082;8.816;2024-03-07T11:23:27;8.90;85.10
64888;DHT22;51386;53.082;8.816;2024-03-07T11:28:39;8.80;85.20
64888;DHT22;51386;53.082;8.816;2024-03-07T11:31:26;8.80;85.00
64888;DHT22;51386;53.082;8.816;2024-03-07T11:34:14;8.80;85.20
64888;DHT22;51386;53.082;8.816;2024-03-07T11:36:47;8.80;85.50
64888;DHT22;51386;53.082;8.816;2024-03-07T11:39:58;8.70;85.70
64888;DHT22;51386;53.082;8.816;2024-03-07T11:42:36;8.80;85.80
64888;DHT22;51386;53.082;8.816;2024-03-07T11:45:04;8.70;85.60
64888;DHT22;51386;53.082;8.816;2024-03-07T11:47:38;8.70;86.10
64888;DHT22;51386;53.082;8.816;2024-03-07T11:50:07;8.70;86.20
64888;DHT22;51386;53.082;8.816;2024-03-07T11:52:39;8.70;86.20
64888;DHT22;51386;53.082;8.816;2024-03-07T11:55:12;8.70;86.10
64888;DHT22;51386;53.082;8.816;2024-03-07T11:57:41;8.70;85.60
64888;DHT22;51386;53.082;8.816;2024-03-07T12:00:12;8.70;85.60
64888;DHT22;51386;53.082;8.816;2024-03-07T12:02:44;8.70;85.60
64888;DHT22;51386;53.082;8.816;2024-03-07T12:05:13;8.70;86.00
64888;DHT22;51386;53.082;8.816;2024-03-07T12:07:47;8.60;86.30
64888;DHT22;51386;53.082;8.816;2024-03-07T12:10:17;8.60;86.20
64888;DHT22;51386;53.082;8.816;2024-03-07T12:12:52;8.70;86.70
64888;DHT22;51386;53.082;8.816;2024-03-07T12:15:24;8.70;86.50
64888;DHT22;51386;53.082;8.816;2024-03-07T12:17:53;8.80;86.20
64888;DHT22;51386;53.082;8.816;2024-03-07T12:20:22;8.80;86.30
64888;DHT22;51386;53.082;8.816;2024-03-07T12:22:59;8.90;86.20
64888;DHT22;51386;53.082;8.816;2024-03-07T12:25:31;8.90;85.80
64888;DHT22;51386;53.082;8.816;2024-03-07T12:28:08;8.90;85.70
64888;DHT22;51386;53.082;8.816;2024-03-07T12:30:55;9.00;85.40
64888;DHT22;51386;53.082;8.816;2024-03-07T12:33:24;9.00;85.40
64888;DHT22;51386;53.082;8.816;2024-03-07T12:35:56;9.00;85.40
64888;DHT22;51386;53.082;8.816;2024-03-07T12:38:34;9.00;85.50
64888;DHT22;51386;53.082;8.816;2024-03-07T12:41:07;9.00;85.60
64888;DHT22;51386;53.082;8.816;2024-03-07T12:43:43;9.00;86.20
64888;DHT22;51386;53.082;8.816;2024-03-07T12:46:17;9.00;86.10
64888;DHT22;51386;53.082;8.816;2024-03-07T12:48:45;9.10;85.70
64888;DHT22;51386;53.082;8.816;2024-03-07T12:51:14;9.10;85.40
64888;DHT22;51386;53.082;8.816;2024-03-07T12:53:47;9.10;85.50
64888;DHT22;51386;53.082;8.816;2024-03-07T12:56:16;9.20;85.50
64888;DHT22;51386;53.082;8.816;2024-03-07T12:58:47;9.20;85.50
64888;DHT22;51386;53.082;8.816;2024-03-07T13:01:18;9.20;85.30
64888;DHT22;51386;53.082;8.816;2024-03-07T13:03:48;9.20;85.40
64888;DHT22;51386;53.082;8.816;2024-03-07T13:06:17;9.20;85.40
64888;DHT22;51386;53.082;8.816;2024-03-07T13:08:53;9.20;85.00
64888;DHT22;51386;53.082;8.816;2024-03-07T13:11:22;9.20;85.10
64888;DHT22;51386;53.082;8.816;2024-03-07T13:13:51;9.20;85.00
64888;DHT22;51386;53.082;8.816;2024-03-07T13:16:20;9.20;85.10
64888;DHT22;51386;53.082;8.816;2024-03-07T13:18:48;9.20;84.70
64888;DHT22;51386;53.082;8.816;2024-03-07T13:21:18;9.20;84.90
64888;DHT22;51386;53.082;8.816;2024-03-07T13:23:48;9.20;85.00
64888;DHT22;51386;53.082;8.816;2024-03-07T13:26:17;9.20;85.30
64888;DHT22;51386;53.082;8.816;2024-03-07T13:28:53;9.20;85.50
64888;DHT22;51386;53.082;8.816;2024-03-07T13:31:22;9.20;85.30
64888;DHT22;51386;53.082;8.816;2024-03-07T13:33:50;9.20;85.30
64888;DHT22;51386;53.082;8.816;2024-03-07T13:36:19;9.10;85.00
64888;DHT22;51386;53.082;8.816;2024-03-07T13:38:52;9.10;85.10
64888;DHT22;51386;53.082;8.816;2024-03-07T13:41:22;9.10;85.10
64888;DHT22;51386;53.082;8.816;2024-03-07T13:43:51;9.10;85.20
64888;DHT22;51386;53.082;8.816;2024-03-07T13:46:19;9.00;85.20
64888;DHT22;51386;53.082;8.816;2024-03-07T13:48:49;9.00;85.10
64888;DHT22;51386;53.082;8.816;2024-03-07T13:51:19;9.00;85.40
64888;DHT22;51386;53.082;8.816;2024-03-07T13:53:48;8.90;85.30
64888;DHT22;51386;53.082;8.816;2024-03-07T14:06:01;12.20;91.60
